createdAt,value
2022-09-07T00:02:03.156Z,81.90
2022-09-07T00:04:32.850Z,82.00
2022-09-07T00:07:01.248Z,82.30
2022-09-07T00:09:29.444Z,82.30
2022-09-07T00:11:57.658Z,82.20
2022-09-07T00:14:25.818Z,82.60
2022-09-07T00:16:54.065Z,82.40
2022-09-07T00:19:22.649Z,82.70
2022-09-07T00:21:52.150Z,82.70
2022-09-07T00:24:20.289Z,82.60
2022-09-07T00:26:50.821Z,82.90
2022-09-07T00:29:19.013Z,82.50
2022-09-07T00:31:47.124Z,82.70
2022-09-07T00:34:15.552Z,83.00
2022-09-07T00:36:43.771Z,83.30
2022-09-07T00:39:15.760Z,83.60
2022-09-07T00:41:47.564Z,83.60
2022-09-07T00:44:57.540Z,83.50
2022-09-07T00:47:29.689Z,83.60
2022-09-07T00:50:00.848Z,83.80
2022-09-07T00:52:32.839Z,84.00
2022-09-07T00:55:09.266Z,83.40
2022-09-07T00:57:42.408Z,83.50
2022-09-07T01:00:12.158Z,83.70
2022-09-07T01:02:40.990Z,84.00
2022-09-07T01:05:16.799Z,83.90
2022-09-07T01:07:46.983Z,84.00
2022-09-07T01:10:16.708Z,84.20
2022-09-07T01:12:44.834Z,84.10
2022-09-07T01:15:13.140Z,84.80
2022-09-07T01:17:55.565Z,84.60
2022-09-07T01:20:41.496Z,84.50
2022-09-07T01:23:43.156Z,84.50
2022-09-07T01:26:48.396Z,84.00
2022-09-07T01:29:25.070Z,84.30
2022-09-07T01:32:05.457Z,84.30
2022-09-07T01:34:33.634Z,84.30
2022-09-07T01:37:11.527Z,84.40
2022-09-07T01:39:47.845Z,84.40
2022-09-07T01:42:21.063Z,84.70
2022-09-07T01:44:54.065Z,84.80
2022-09-07T01:47:26.653Z,84.70
2022-09-07T01:50:01.322Z,84.70
2022-09-07T01:52:39.061Z,85.00
2022-09-07T01:55:09.595Z,85.10
2022-09-07T01:57:42.687Z,85.10
2022-09-07T02:00:15.377Z,85.00
2022-09-07T02:02:48.221Z,85.30
2022-09-07T02:05:20.140Z,85.30
2022-09-07T02:07:53.060Z,85.50
2022-09-07T02:10:26.684Z,85.90
2022-09-07T02:12:59.990Z,85.80
2022-09-07T02:15:38.420Z,85.80
2022-09-07T02:18:09.127Z,86.00
2022-09-07T02:20:40.095Z,86.00
2022-09-07T02:23:15.831Z,86.40
2022-09-07T02:25:48.200Z,86.40
2022-09-07T02:28:20.302Z,86.60
2022-09-07T02:30:49.954Z,86.50
2022-09-07T02:33:19.875Z,86.90
2022-09-07T02:35:48.416Z,86.90
2022-09-07T02:38:19.370Z,87.00
2022-09-07T02:40:52.287Z,87.00
2022-09-07T02:43:23.061Z,86.90
2022-09-07T02:46:13.685Z,87.00
2022-09-07T02:48:49.847Z,86.90
2022-09-07T02:51:26.754Z,86.70
2022-09-07T02:54:25.444Z,86.90
2022-09-07T02:57:04.635Z,87.90
2022-09-07T02:59:46.329Z,87.10
2022-09-07T03:02:25.414Z,87.10
2022-09-07T03:05:02.470Z,87.00
2022-09-07T03:07:35.864Z,86.70
2022-09-07T03:10:07.458Z,86.90
2022-09-07T03:12:44.778Z,86.70
2022-09-07T03:15:14.584Z,86.70
2022-09-07T03:17:45.499Z,86.60
2022-09-07T03:20:17.407Z,86.60
2022-09-07T03:22:46.629Z,86.60
2022-09-07T03:25:14.807Z,87.00
2022-09-07T03:27:43.266Z,87.00
2022-09-07T03:30:12.969Z,86.80
2022-09-07T03:32:42.916Z,87.10
2022-09-07T03:35:11.377Z,86.80
2022-09-07T03:37:40.124Z,87.10
2022-09-07T03:40:11.429Z,86.90
2022-09-07T03:42:40.346Z,86.70
2022-09-07T03:45:09.782Z,86.80
2022-09-07T03:47:39.150Z,87.00
2022-09-07T03:50:09.372Z,87.40
2022-09-07T03:52:37.763Z,87.30
2022-09-07T03:55:08.979Z,87.00
2022-09-07T03:57:40.356Z,86.80
2022-09-07T04:00:09.583Z,86.60
2022-09-07T04:02:40.607Z,86.40
2022-09-07T04:05:11.575Z,86.50
2022-09-07T04:07:39.872Z,86.60
2022-09-07T04:10:08.987Z,86.50
2022-09-07T04:12:37.162Z,86.70
2022-09-07T04:15:09.092Z,86.50
2022-09-07T04:17:37.241Z,86.60
2022-09-07T04:20:06.063Z,86.50
2022-09-07T04:22:38.216Z,86.40
2022-09-07T04:25:06.742Z,86.30
2022-09-07T04:27:34.921Z,86.20
2022-09-07T04:30:03.101Z,86.10
2022-09-07T04:32:31.324Z,85.50
2022-09-07T04:35:01.671Z,85.10
2022-09-07T04:37:29.827Z,84.60
2022-09-07T04:39:59.441Z,84.30
2022-09-07T04:42:31.232Z,84.20
2022-09-07T04:44:59.433Z,84.30
2022-09-07T04:47:30.588Z,84.40
2022-09-07T04:49:59.444Z,84.50
2022-09-07T04:52:30.527Z,84.30
2022-09-07T04:54:59.996Z,84.20
2022-09-07T04:57:28.090Z,83.80
2022-09-07T04:59:56.248Z,83.50
2022-09-07T05:02:24.498Z,83.10
2022-09-07T05:04:52.711Z,82.30
2022-09-07T05:07:20.941Z,81.40
2022-09-07T05:09:49.017Z,81.20
2022-09-07T05:12:18.779Z,81.30
2022-09-07T05:14:46.965Z,81.40
2022-09-07T05:17:15.338Z,81.30
2022-09-07T05:19:43.557Z,81.00
2022-09-07T05:22:12.215Z,80.70
2022-09-07T05:24:40.360Z,80.20
2022-09-07T05:27:08.493Z,79.80
2022-09-07T05:32:28.244Z,79.80
2022-09-07T05:34:56.440Z,79.90
2022-09-07T05:37:24.607Z,80.00
2022-09-07T05:39:55.125Z,80.30
2022-09-07T05:42:23.745Z,80.50
2022-09-07T05:44:53.319Z,80.60
2022-09-07T05:47:21.860Z,80.60
2022-09-07T05:49:51.955Z,80.60
2022-09-07T05:52:23.330Z,80.20
2022-09-07T05:54:54.375Z,80.50
2022-09-07T05:57:24.743Z,80.40
2022-09-07T05:59:54.248Z,80.50
2022-09-07T06:02:22.429Z,80.80
2022-09-07T06:04:52.765Z,80.80
2022-09-07T06:07:22.504Z,80.50
2022-09-07T06:12:39.518Z,79.80
2022-09-07T06:16:08.998Z,79.40
2022-09-07T06:18:40.177Z,78.80
2022-09-07T06:21:09.749Z,78.20
2022-09-07T06:23:39.828Z,78.30
2022-09-07T06:26:09.152Z,77.80
2022-09-07T06:28:39.531Z,77.50
2022-09-07T06:31:10.846Z,77.20
2022-09-07T06:33:42.550Z,76.90
2022-09-07T06:36:14.557Z,76.20
2022-09-07T06:38:43.524Z,75.70
2022-09-07T06:44:04.053Z,74.90
2022-09-07T06:49:23.581Z,74.20
2022-09-07T06:51:52.103Z,74.10
2022-09-07T06:57:09.631Z,74.00
2022-09-07T06:59:38.991Z,74.00
2022-09-07T07:02:08.170Z,73.80
2022-09-07T07:04:40.832Z,73.60
2022-09-07T07:07:12.320Z,72.80
2022-09-07T07:09:41.078Z,72.50
2022-09-07T07:12:09.463Z,72.20
2022-09-07T07:14:39.894Z,71.30
2022-09-07T07:17:09.657Z,71.20
2022-09-07T07:19:39.335Z,70.10
2022-09-07T07:22:23.894Z,70.00
2022-09-07T07:24:55.935Z,69.00
2022-09-07T07:27:24.198Z,67.90
2022-09-07T07:29:53.912Z,66.50
2022-09-07T07:32:22.384Z,66.40
2022-09-07T07:34:51.890Z,65.40
2022-09-07T07:37:19.958Z,65.40
2022-09-07T07:42:39.769Z,66.10
2022-09-07T07:47:57.436Z,67.00
2022-09-07T07:50:31.070Z,67.20
2022-09-07T07:55:50.170Z,68.50
2022-09-07T07:58:18.668Z,69.30
2022-09-07T08:00:55.386Z,69.70
2022-09-07T08:03:26.094Z,69.60
2022-09-07T08:05:56.238Z,69.50
2022-09-07T08:08:25.313Z,68.70
2022-09-07T08:10:53.552Z,68.30
2022-09-07T08:13:22.312Z,67.60
2022-09-07T08:15:50.631Z,67.00
2022-09-07T08:18:18.889Z,66.50
2022-09-07T08:20:46.920Z,65.60
2022-09-07T08:23:16.436Z,65.40
2022-09-07T08:25:52.674Z,64.70
2022-09-07T08:28:21.262Z,64.40
2022-09-07T08:30:50.051Z,62.70
2022-09-07T08:33:18.212Z,62.70
2022-09-07T08:35:56.709Z,63.00
2022-09-07T08:38:26.605Z,63.00
2022-09-07T08:40:58.219Z,62.30
2022-09-07T08:43:49.117Z,61.50
2022-09-07T08:46:27.896Z,61.10
2022-09-07T08:49:01.492Z,61.00
2022-09-07T08:51:36.583Z,60.40
2022-09-07T08:54:07.137Z,60.30
2022-09-07T08:56:38.444Z,60.40
2022-09-07T08:59:17.937Z,59.80
2022-09-07T09:02:26.971Z,59.90
2022-09-07T09:05:16.092Z,59.80
2022-09-07T09:07:30.976Z,59.50
2022-09-07T09:10:16.721Z,59.50
2022-09-07T09:13:01.377Z,59.60
2022-09-07T09:15:39.645Z,58.90
2022-09-07T09:18:22.661Z,58.60
2022-09-07T09:20:53.323Z,58.20
2022-09-07T09:23:25.670Z,58.20
2022-09-07T09:25:56.940Z,57.00
2022-09-07T09:28:27.694Z,56.40
2022-09-07T09:30:58.473Z,55.60
2022-09-07T09:33:28.873Z,55.00
2022-09-07T09:36:00.059Z,54.90
2022-09-07T09:38:34.130Z,55.40
2022-09-07T09:41:06.449Z,55.10
2022-09-07T09:43:40.238Z,54.70
2022-09-07T09:46:21.625Z,54.30
2022-09-07T09:48:57.013Z,54.30
2022-09-07T09:54:24.425Z,52.90
2022-09-07T09:56:54.223Z,52.90
2022-09-07T10:05:29.673Z,51.30
2022-09-07T10:07:58.116Z,51.10
2022-09-07T10:10:27.893Z,50.20
2022-09-07T10:12:58.157Z,49.90
2022-09-07T10:15:32.873Z,49.50
2022-09-07T10:18:06.076Z,49.80
2022-09-07T10:20:36.680Z,49.40
2022-09-07T10:23:06.651Z,49.80
2022-09-07T10:25:37.250Z,49.60
2022-09-07T10:28:18.247Z,49.30
2022-09-07T10:31:02.251Z,48.50
2022-09-07T10:33:41.646Z,49.40
2022-09-07T10:36:16.470Z,48.70
2022-09-07T10:38:52.897Z,48.00
2022-09-07T10:41:27.079Z,49.30
2022-09-07T10:43:58.449Z,49.80
2022-09-07T10:47:03.983Z,50.30
2022-09-07T10:49:37.285Z,50.20
2022-09-07T10:52:14.059Z,49.70
2022-09-07T10:54:50.777Z,48.90
2022-09-07T10:57:40.071Z,48.80
2022-09-07T11:00:13.056Z,47.50
2022-09-07T11:06:03.989Z,46.90
2022-09-07T11:14:26.484Z,47.30
2022-09-07T11:17:00.941Z,46.40
2022-09-07T11:19:36.374Z,47.40
2022-09-07T11:22:20.909Z,47.00
2022-09-07T11:27:46.829Z,47.20
2022-09-07T11:30:20.851Z,47.00
2022-09-07T11:32:59.917Z,46.70
2022-09-07T11:35:44.563Z,47.00
2022-09-07T11:38:20.111Z,45.60
2022-09-07T11:41:02.944Z,46.50
2022-09-07T11:43:33.261Z,47.30
2022-09-07T11:46:06.145Z,47.50
2022-09-07T11:48:41.079Z,46.30
2022-09-07T11:51:14.998Z,46.20
2022-09-07T11:53:47.716Z,46.40
2022-09-07T11:56:22.927Z,46.40
2022-09-07T11:59:05.910Z,46.10
2022-09-07T12:01:41.254Z,45.80
2022-09-07T12:04:34.583Z,46.20
2022-09-07T12:07:33.201Z,46.70
2022-09-07T12:10:16.019Z,46.20
2022-09-07T12:13:07.779Z,45.00
2022-09-07T12:15:44.778Z,46.30
2022-09-07T12:18:33.337Z,46.50
2022-09-07T12:21:02.782Z,46.10
2022-09-07T12:23:32.003Z,45.30
2022-09-07T12:26:37.006Z,45.10
2022-09-07T12:29:18.639Z,45.20
2022-09-07T12:34:55.437Z,44.70
2022-09-07T12:37:42.649Z,44.10
2022-09-07T12:40:48.127Z,45.40
2022-09-07T12:43:53.685Z,46.00
2022-09-07T12:46:46.720Z,46.00
2022-09-07T12:49:40.611Z,46.60
2022-09-07T12:52:31.489Z,46.50
2022-09-07T12:55:26.699Z,46.20
2022-09-07T12:58:03.873Z,46.50
2022-09-07T13:00:47.756Z,46.50
2022-09-07T13:03:50.296Z,46.50
2022-09-07T13:09:34.660Z,44.90
2022-09-07T13:12:07.199Z,44.10
2022-09-07T13:14:39.440Z,43.40
2022-09-07T13:17:41.581Z,42.00
2022-09-07T13:20:30.203Z,43.60
2022-09-07T13:23:28.940Z,43.60
2022-09-07T13:25:59.984Z,44.20
2022-09-07T13:28:37.662Z,45.30
2022-09-07T13:31:35.836Z,44.90
2022-09-07T13:34:48.077Z,45.20
2022-09-07T13:37:23.984Z,45.10
2022-09-07T13:39:55.061Z,44.40
2022-09-07T13:42:26.760Z,44.00
2022-09-07T13:44:56.639Z,44.20
2022-09-07T13:47:38.334Z,45.60
2022-09-07T13:50:21.975Z,46.50
2022-09-07T13:53:18.560Z,46.00
2022-09-07T13:55:54.899Z,46.00
2022-09-07T13:58:29.587Z,46.10
2022-09-07T14:01:00.905Z,46.40
2022-09-07T14:03:34.323Z,45.20
2022-09-07T14:06:32.303Z,44.80
2022-09-07T14:09:04.636Z,45.60
2022-09-07T14:11:41.402Z,45.80
2022-09-07T14:14:13.136Z,45.10
2022-09-07T14:16:43.403Z,45.20
2022-09-07T14:19:17.505Z,44.70
2022-09-07T14:21:54.174Z,44.10
2022-09-07T14:24:34.458Z,44.80
2022-09-07T14:27:03.540Z,45.20
2022-09-07T14:29:35.706Z,45.20
2022-09-07T14:32:05.309Z,44.90
2022-09-07T14:34:35.622Z,44.30
2022-09-07T14:37:07.155Z,44.40
2022-09-07T14:39:40.945Z,43.30
2022-09-07T14:42:12.112Z,43.80
2022-09-07T14:44:42.911Z,44.40
2022-09-07T14:47:24.771Z,43.80
2022-09-07T14:49:53.256Z,43.90
2022-09-07T14:52:24.443Z,42.30
2022-09-07T14:54:54.105Z,42.70
2022-09-07T14:57:32.337Z,42.60
2022-09-07T15:00:20.496Z,43.10
2022-09-07T15:02:48.825Z,42.60
2022-09-07T15:05:22.403Z,42.20
2022-09-07T15:07:54.533Z,43.20
2022-09-07T15:10:37.416Z,43.20
2022-09-07T15:13:24.908Z,43.30
2022-09-07T15:16:01.310Z,43.60
2022-09-07T15:18:57.685Z,43.10
2022-09-07T15:21:28.483Z,42.90
2022-09-07T15:23:58.669Z,43.00
2022-09-07T15:29:21.905Z,43.10
2022-09-07T15:32:01.722Z,43.20
2022-09-07T15:34:32.363Z,43.10
2022-09-07T15:37:01.725Z,43.00
2022-09-07T15:39:31.260Z,43.20
2022-09-07T15:42:59.540Z,43.20
2022-09-07T15:44:50.957Z,42.70
2022-09-07T15:50:08.790Z,42.80
2022-09-07T15:52:37.060Z,43.00
2022-09-07T15:55:06.150Z,42.50
2022-09-07T15:57:59.263Z,42.90
2022-09-07T16:00:23.740Z,41.80
2022-09-07T16:03:08.300Z,41.90
2022-09-07T16:05:40.503Z,42.30
2022-09-07T16:11:05.460Z,42.70
2022-09-07T16:13:36.607Z,43.30
2022-09-07T16:16:06.593Z,43.60
2022-09-07T16:18:35.359Z,43.70
2022-09-07T16:21:12.292Z,44.00
2022-09-07T16:23:42.918Z,44.20
2022-09-07T16:26:14.164Z,42.80
2022-09-07T16:28:47.782Z,43.90
2022-09-07T16:31:18.027Z,44.30
2022-09-07T16:33:46.262Z,44.80
2022-09-07T16:36:16.358Z,45.10
2022-09-07T16:38:48.157Z,45.10
2022-09-07T16:41:18.325Z,45.30
2022-09-07T16:43:47.794Z,46.20
2022-09-07T16:46:17.851Z,45.30
2022-09-07T16:48:45.952Z,45.00
2022-09-07T16:51:16.346Z,45.00
2022-09-07T16:53:44.625Z,46.30
2022-09-07T16:56:16.666Z,45.40
2022-09-07T16:58:47.674Z,45.40
2022-09-07T17:01:17.917Z,45.40
2022-09-07T17:03:46.219Z,45.50
2022-09-07T17:06:18.444Z,45.00
2022-09-07T17:08:47.000Z,44.50
2022-09-07T17:11:17.707Z,44.10
2022-09-07T17:13:47.968Z,43.00
2022-09-07T17:16:17.809Z,42.90
2022-09-07T17:21:37.576Z,42.70
2022-09-07T17:24:07.836Z,42.20
2022-09-07T17:26:36.536Z,42.50
2022-09-07T17:29:07.191Z,42.80
2022-09-07T17:34:25.012Z,43.10
2022-09-07T17:36:53.228Z,43.60
2022-09-07T17:39:21.225Z,43.20
2022-09-07T17:41:52.684Z,43.30
2022-09-07T17:44:23.352Z,44.20
2022-09-07T17:46:51.802Z,43.70
2022-09-07T17:49:20.977Z,44.00
2022-09-07T17:51:49.104Z,44.40
2022-09-07T17:54:18.038Z,44.80
2022-09-07T17:56:47.827Z,44.80
2022-09-07T18:02:05.532Z,45.20
2022-09-07T18:04:35.705Z,45.20
2022-09-07T18:07:03.867Z,45.50
2022-09-07T18:09:31.893Z,45.50
2022-09-07T18:12:01.324Z,45.40
2022-09-07T18:14:30.130Z,45.30
2022-09-07T18:17:00.392Z,45.40
2022-09-07T18:19:29.855Z,45.60
2022-09-07T18:21:57.870Z,46.50
2022-09-07T18:24:27.312Z,45.90
2022-09-07T18:26:56.133Z,46.00
2022-09-07T18:29:29.944Z,46.40
2022-09-07T18:32:01.434Z,46.80
2022-09-07T18:34:31.967Z,47.00
2022-09-07T18:37:00.418Z,47.10
2022-09-07T18:39:31.371Z,47.30
2022-09-07T18:41:59.447Z,47.20
2022-09-07T18:47:22.114Z,47.80
2022-09-07T18:49:54.650Z,48.70
2022-09-07T18:55:11.776Z,48.90
2022-09-07T18:57:39.931Z,49.00
2022-09-07T19:00:09.674Z,48.80
2022-09-07T19:03:53.772Z,49.20
2022-09-07T19:06:24.289Z,49.40
2022-09-07T19:08:53.436Z,49.70
2022-09-07T19:11:24.891Z,49.90
2022-09-07T19:13:57.056Z,50.10
2022-09-07T19:16:26.118Z,51.30
2022-09-07T19:18:56.360Z,51.90
2022-09-07T19:21:30.696Z,53.20
2022-09-07T19:24:01.894Z,52.00
2022-09-07T19:26:32.728Z,53.00
2022-09-07T19:29:02.482Z,54.20
2022-09-07T19:31:32.353Z,52.70
2022-09-07T19:34:02.051Z,52.60
2022-09-07T19:36:34.310Z,52.70
2022-09-07T19:39:02.975Z,51.80
2022-09-07T19:41:31.630Z,52.10
2022-09-07T19:43:59.635Z,52.30
2022-09-07T19:46:27.696Z,51.80
2022-09-07T19:48:57.548Z,57.30
2022-09-07T19:51:25.705Z,58.30
2022-09-07T19:53:55.145Z,59.80
2022-09-07T19:56:24.229Z,61.20
2022-09-07T19:58:54.496Z,60.50
2022-09-07T20:01:24.885Z,62.50
2022-09-07T20:03:58.067Z,63.80
2022-09-07T20:06:27.022Z,65.20
2022-09-07T20:08:57.654Z,66.20
2022-09-07T20:11:26.263Z,66.20
2022-09-07T20:13:54.285Z,66.20
2022-09-07T20:16:22.669Z,66.20
2022-09-07T20:18:51.227Z,66.30
2022-09-07T20:21:22.091Z,66.00
2022-09-07T20:23:50.357Z,65.90
2022-09-07T20:26:21.536Z,65.40
2022-09-07T20:29:05.904Z,65.40
2022-09-07T20:31:45.495Z,65.00
2022-09-07T20:34:13.633Z,65.40
2022-09-07T20:36:41.922Z,65.50
2022-09-07T20:39:14.764Z,65.60
2022-09-07T20:41:44.416Z,66.90
2022-09-07T20:44:12.603Z,66.50
2022-09-07T20:46:40.634Z,66.40
2022-09-07T20:49:11.475Z,66.50
2022-09-07T20:51:39.697Z,66.00
2022-09-07T20:54:08.130Z,67.30
2022-09-07T20:56:36.163Z,67.30
2022-09-07T20:59:05.515Z,67.40
2022-09-07T21:01:35.119Z,68.50
2022-09-07T21:04:03.965Z,68.80
2022-09-07T21:06:33.114Z,69.10
2022-09-07T21:09:03.397Z,68.40
2022-09-07T21:11:33.122Z,68.20
2022-09-07T21:14:02.844Z,68.40
2022-09-07T21:16:32.388Z,68.70
2022-09-07T21:19:04.909Z,69.30
2022-09-07T21:21:38.610Z,68.60
2022-09-07T21:24:08.373Z,69.60
2022-09-07T21:26:36.380Z,69.20
2022-09-07T21:29:06.038Z,70.30
2022-09-07T21:31:35.385Z,69.30
2022-09-07T21:34:03.750Z,69.70
2022-09-07T21:36:31.954Z,69.90
2022-09-07T21:38:59.947Z,70.20
2022-09-07T21:41:28.289Z,70.20
2022-09-07T21:43:57.168Z,69.90
2022-09-07T21:46:26.341Z,69.90
2022-09-07T21:48:57.011Z,70.40
2022-09-07T21:51:25.727Z,70.80
2022-09-07T21:53:54.625Z,71.30
2022-09-07T21:56:23.153Z,72.50
2022-09-07T21:58:55.309Z,72.10
2022-09-07T22:01:24.541Z,72.40
2022-09-07T22:04:01.748Z,73.10
2022-09-07T22:06:32.159Z,72.50
2022-09-07T22:09:00.460Z,72.30
2022-09-07T22:11:29.363Z,71.50
2022-09-07T22:13:58.524Z,70.90
2022-09-07T22:16:26.692Z,71.50
2022-09-07T22:18:56.249Z,70.80
2022-09-07T22:21:25.621Z,70.80
2022-09-07T22:23:56.872Z,70.70
2022-09-07T22:26:26.901Z,71.20
2022-09-07T22:28:55.484Z,70.10
2022-09-07T22:31:25.387Z,71.10
2022-09-07T22:33:56.665Z,69.10
2022-09-07T22:36:27.824Z,68.70
2022-09-07T22:38:57.626Z,69.30
2022-09-07T22:41:27.467Z,68.80
2022-09-07T22:43:57.813Z,68.40
2022-09-07T22:46:28.360Z,68.70
2022-09-07T22:48:58.853Z,68.60
2022-09-07T22:51:27.709Z,68.90
2022-09-07T22:53:56.928Z,68.40
2022-09-07T22:56:26.895Z,68.60
2022-09-07T22:58:57.850Z,68.80
2022-09-07T23:01:26.460Z,69.40
2022-09-07T23:03:55.374Z,70.00
2022-09-07T23:06:32.441Z,70.60
2022-09-07T23:09:08.397Z,71.20
2022-09-07T23:11:46.210Z,70.90
2022-09-07T23:14:23.468Z,71.40
2022-09-07T23:17:12.150Z,71.10
2022-09-07T23:19:46.784Z,71.50
2022-09-07T23:22:22.993Z,71.90
2022-09-07T23:25:06.096Z,71.60
2022-09-07T23:27:37.652Z,71.70
2022-09-07T23:30:06.965Z,72.20
2022-09-07T23:32:35.000Z,72.30
2022-09-07T23:35:03.833Z,72.20
2022-09-07T23:37:33.361Z,72.40
2022-09-07T23:40:01.359Z,72.60
2022-09-07T23:42:29.566Z,72.80
2022-09-07T23:44:57.610Z,73.00
2022-09-07T23:47:26.510Z,73.80
2022-09-07T23:49:54.500Z,74.30
2022-09-07T23:52:22.515Z,74.80
2022-09-07T23:54:54.212Z,75.00
2022-09-07T23:57:22.234Z,75.20
2022-09-07T23:59:50.291Z,75.70
